createdAt,value
2022-08-27T02:33:58.186Z,5.4
2022-08-27T02:49:08.335Z,4.4
2022-08-27T03:04:17.336Z,3.9
2022-08-27T03:19:26.861Z,2.9
2022-08-27T03:34:36.426Z,3.8
2022-08-27T03:49:46.199Z,3.4
2022-08-27T04:04:55.113Z,3.4
2022-08-27T04:20:35.645Z,3.2
2022-08-27T04:35:45.765Z,3.1
2022-08-27T04:50:55.836Z,3.9
2022-08-27T05:06:05.049Z,3.5
2022-08-27T05:21:14.378Z,3.2
2022-08-27T05:36:23.486Z,2.7
2022-08-27T05:51:32.858Z,2.9
2022-08-27T06:06:42.137Z,3
2022-08-27T06:22:10.762Z,3
2022-08-27T06:37:21.131Z,4.4
2022-08-27T06:52:30.685Z,3.4
2022-08-27T07:07:48.856Z,3.5
2022-08-27T07:22:58.497Z,3.2
2022-08-27T07:38:07.372Z,2.5
2022-08-27T07:53:16.956Z,2.4
2022-08-27T08:08:27.580Z,2.7
2022-08-27T08:23:37.386Z,2.9
2022-08-27T08:38:48.639Z,3.2
2022-08-27T08:53:58.460Z,3.1
2022-08-27T09:03:46.841Z,3.5
2022-08-27T09:18:52.770Z,3.6
2022-08-27T09:34:03.028Z,3.1
2022-08-27T09:49:13.167Z,3
2022-08-27T10:04:23.589Z,3.7
2022-08-27T10:19:33.990Z,3.1
2022-08-27T10:34:43.720Z,2.6
2022-08-27T10:49:54.559Z,2.8
2022-08-27T11:05:04.096Z,2.6
2022-08-27T11:20:13.603Z,2.7
2022-08-27T11:35:23.009Z,2.7
2022-08-27T11:50:32.218Z,2.8
2022-08-27T12:05:42.023Z,3.5
2022-08-27T12:20:51.536Z,3.1
2022-08-27T12:36:01.054Z,2.7
2022-08-27T12:51:10.215Z,2.8
2022-08-27T13:06:22.863Z,3.6
2022-08-27T13:21:32.031Z,3.4
2022-08-27T13:36:41.475Z,3.6
2022-08-27T13:51:50.328Z,3.2
2022-08-27T14:06:59.396Z,3.1
2022-08-27T14:22:08.516Z,2.8
2022-08-27T14:37:17.481Z,2.6
2022-08-27T14:52:26.294Z,2.9
2022-08-27T15:07:35.641Z,3.4
2022-08-27T15:22:45.183Z,3.1
2022-08-27T15:37:54.682Z,3.2
2022-08-27T15:53:03.645Z,2.3
2022-08-27T16:08:13.689Z,3
2022-08-27T16:23:23.548Z,2.5
2022-08-27T16:38:33.005Z,3
2022-08-27T16:53:42.463Z,2.7
2022-08-27T17:08:52.035Z,2.6
2022-08-27T17:24:01.193Z,2
2022-08-27T17:39:10.652Z,2.4
2022-08-27T17:54:19.495Z,2.8
2022-08-27T18:09:28.304Z,2.3
2022-08-27T18:24:37.605Z,2.1
2022-08-27T18:39:46.675Z,2.1
2022-08-27T18:54:56.330Z,2.1
2022-08-27T19:10:10.770Z,2.7
2022-08-27T19:25:23.053Z,2.3
2022-08-27T19:40:32.524Z,2.7
2022-08-27T19:55:42.714Z,2.9
2022-08-27T20:10:52.070Z,3.2
2022-08-27T20:26:01.865Z,2.7
2022-08-27T20:41:10.520Z,3.2
2022-08-27T20:56:21.016Z,3.8
2022-08-27T21:11:30.575Z,3.8
2022-08-27T21:26:40.118Z,3
2022-08-27T21:41:49.571Z,3.7
2022-08-27T21:56:58.668Z,3.4
2022-08-27T22:12:10.992Z,3.3
2022-08-27T22:27:23.374Z,4
2022-08-27T22:42:33.202Z,3.8
2022-08-27T22:57:42.588Z,3.7
2022-08-27T23:12:51.446Z,3.3
2022-08-27T23:28:06.487Z,4.1
2022-08-27T23:45:30.649Z,5.1
